PWSweather.com
Personal Weather Stations
Station Observations
KAZPHOEN90
RayThunderhill, Phoenix, AZ

RayThunderhillPhoenix, AZ

Lat: 33.312, Lon: -112.029

Elevation: 1260

Station Type: Davis Vantage VUE

Latest ConditionsUpdated 2:30:03 PM MST Friday, Feb 24, 2017
Currently Today's Max Today's Min Today's Average
Temperature 62.6°F17.0°C 62.9°F17.2°C 36.7°F2.6°C 49.2°F9.6°C
Dew Point 19.7°F-6.8°C 31.6°F-0.2°C 19.1°F-7.2°C 26.7°F-2.9°C
Winds 1.0 mph WSW1.6 kmh WSW 1.9 mph SE3.1 kmh SE - 0.2 mph 0.3 kmh
Wind Gusts 3.0 mph4.8 kmh 4.0 mph6.4 kmh - -
Humidity 19% 77% 19% 45%
Pressure 30.05 in1017.6 mb 30.11 in1019.6 mb 29.94 in1013.9 mb -
Hour Temp Dew Point Humidity Winds Wind Gusts Pressure Precip Precip Rate Daily Precip Total
02:30 PM 62.6°F17.0°C 19.7°F-6.8°C 19% 1.0 mph WSW1.6 kmh WSW 3.0 mph4.8 kmh 30.05 in1017.6 mb - 0.00 in0.0 mm 0.00 in0.0 mm
02:15 PM 62.5°F16.9°C 19.6°F-6.9°C 19% 1.2 mph S1.9 kmh S 3.0 mph4.8 kmh 30.05 in1017.6 mb - 0.00 in0.0 mm 0.00 in0.0 mm
02:00 PM 61.9°F16.6°C 19.1°F-7.2°C 19% 0.7 mph NW1.1 kmh NW 2.0 mph3.2 kmh 30.05 in1017.6 mb - 0.00 in0.0 mm 0.00 in0.0 mm
01:45 PM 62.1°F16.7°C 20.5°F-6.4°C 20% 1.7 mph W2.7 kmh W 4.0 mph6.4 kmh 30.06 in1017.9 mb - 0.00 in0.0 mm 0.00 in0.0 mm
01:30 PM 62.0°F16.7°C 23.7°F-4.6°C 23% 0.3 mph NW0.5 kmh NW 3.0 mph4.8 kmh 30.06 in1017.9 mb - 0.00 in0.0 mm 0.00 in0.0 mm
01:15 PM 62.9°F17.2°C 24.5°F-4.2°C 23% 0.7 mph N1.1 kmh N 2.0 mph3.2 kmh 30.06 in1017.9 mb - 0.00 in0.0 mm 0.00 in0.0 mm
01:00 PM 61.9°F16.6°C 26.6°F-3.0°C 26% 0.2 mph ESE0.3 kmh ESE 2.0 mph3.2 kmh 30.07 in1018.3 mb - 0.00 in0.0 mm 0.00 in0.0 mm
12:45 PM 60.8°F16.0°C 27.4°F-2.6°C 28% Calm Calm 1.0 mph1.6 kmh 30.08 in1018.6 mb - 0.00 in0.0 mm 0.00 in0.0 mm
12:30 PM 60.1°F15.6°C 26.0°F-3.3°C 27% 0.5 mph NE0.8 kmh NE 3.0 mph4.8 kmh 30.09 in1019.0 mb - 0.00 in0.0 mm 0.00 in0.0 mm
12:15 PM 60.4°F15.8°C 27.1°F-2.7°C 28% Calm Calm -- 30.09 in1019.0 mb - 0.00 in0.0 mm 0.00 in0.0 mm
12:00 PM 60.1°F15.6°C 26.0°F-3.3°C 27% 1.5 mph SW2.4 kmh SW 2.0 mph3.2 kmh 30.10 in1019.3 mb - 0.00 in0.0 mm 0.00 in0.0 mm
11:45 AM 59.8°F15.4°C 26.6°F-3.0°C 28% Calm Calm -- 30.10 in1019.3 mb - 0.00 in0.0 mm 0.00 in0.0 mm
11:30 AM 59.1°F15.1°C 26.8°F-2.9°C 29% 0.7 mph ESE1.1 kmh ESE 2.0 mph3.2 kmh 30.11 in1019.6 mb - 0.00 in0.0 mm 0.00 in0.0 mm
11:15 AM 59.2°F15.1°C 26.1°F-3.3°C 28% 1.9 mph SE3.1 kmh SE 4.0 mph6.4 kmh 30.10 in1019.3 mb - 0.00 in0.0 mm 0.00 in0.0 mm
11:00 AM 58.2°F14.6°C 28.5°F-1.9°C 32% Calm Calm 2.0 mph3.2 kmh 30.11 in1019.6 mb - 0.00 in0.0 mm 0.00 in0.0 mm
10:45 AM 57.4°F14.1°C 28.5°F-1.9°C 33% 0.8 mph WNW1.3 kmh WNW 2.0 mph3.2 kmh 30.10 in1019.3 mb - 0.00 in0.0 mm 0.00 in0.0 mm
10:30 AM 56.4°F13.6°C 29.0°F-1.7°C 35% 0.5 mph E0.8 kmh E 2.0 mph3.2 kmh 30.11 in1019.6 mb - 0.00 in0.0 mm 0.00 in0.0 mm
10:15 AM 55.3°F12.9°C 30.1°F-1.1°C 38% 0.4 mph SE0.6 kmh SE 1.0 mph1.6 kmh 30.11 in1019.6 mb - 0.00 in0.0 mm 0.00 in0.0 mm
10:00 AM 54.4°F12.4°C 30.5°F-0.8°C 40% 0.9 mph E1.4 kmh E 1.0 mph1.6 kmh 30.10 in1019.3 mb - 0.00 in0.0 mm 0.00 in0.0 mm
09:45 AM 53.3°F11.8°C 31.3°F-0.4°C 43% Calm Calm -- 30.10 in1019.3 mb - 0.00 in0.0 mm 0.00 in0.0 mm
09:30 AM 52.6°F11.4°C 30.7°F-0.7°C 43% 0.2 mph SSW0.3 kmh SSW -- 30.10 in1019.3 mb - 0.00 in0.0 mm 0.00 in0.0 mm
09:15 AM 51.7°F10.9°C 31.6°F-0.2°C 46% 0.7 mph SE1.1 kmh SE 1.0 mph1.6 kmh 30.09 in1019.0 mb - 0.00 in0.0 mm 0.00 in0.0 mm
09:00 AM 50.3°F10.2°C 30.8°F-0.7°C 47% Calm Calm -- 30.08 in1018.6 mb - 0.00 in0.0 mm 0.00 in0.0 mm
08:45 AM 48.5°F9.2°C 30.7°F-0.7°C 50% 0.1 mph SE0.2 kmh SE -- 30.07 in1018.3 mb - 0.00 in0.0 mm 0.00 in0.0 mm
08:30 AM 45.6°F7.6°C 29.9°F-1.2°C 54% Calm Calm -- 30.06 in1017.9 mb - 0.00 in0.0 mm 0.00 in0.0 mm
08:15 AM 42.4°F5.8°C 28.6°F-1.9°C 58% Calm Calm -- 30.05 in1017.6 mb - 0.00 in0.0 mm 0.00 in0.0 mm
08:00 AM 40.6°F4.8°C 29.4°F-1.4°C 64% Calm Calm -- 30.05 in1017.6 mb - 0.00 in0.0 mm 0.00 in0.0 mm
07:45 AM 38.9°F3.8°C 30.6°F-0.8°C 72% Calm Calm -- 30.04 in1017.3 mb - 0.00 in0.0 mm 0.00 in0.0 mm
07:30 AM 37.7°F3.2°C 30.5°F-0.8°C 75% Calm Calm -- 30.04 in1017.3 mb - 0.00 in0.0 mm 0.00 in0.0 mm
07:15 AM 36.7°F2.6°C 30.1°F-1.1°C 77% Calm Calm -- 30.03 in1016.9 mb - 0.00 in0.0 mm 0.00 in0.0 mm
07:00 AM 36.7°F2.6°C 29.2°F-1.6°C 74% Calm Calm -- 30.03 in1016.9 mb - 0.00 in0.0 mm 0.00 in0.0 mm
06:45 AM 37.7°F3.2°C 29.5°F-1.4°C 72% Calm Calm -- 30.01 in1016.3 mb - 0.00 in0.0 mm 0.00 in0.0 mm
06:30 AM 38.3°F3.5°C 29.7°F-1.3°C 71% Calm Calm -- 30.01 in1016.3 mb - 0.00 in0.0 mm 0.00 in0.0 mm
06:15 AM 38.0°F3.3°C 29.8°F-1.2°C 72% Calm Calm -- 30.01 in1016.3 mb - 0.00 in0.0 mm 0.00 in0.0 mm
06:00 AM 37.9°F3.3°C 29.3°F-1.5°C 71% Calm Calm -- 30.00 in1015.9 mb - 0.00 in0.0 mm 0.00 in0.0 mm
05:45 AM 38.5°F3.6°C 29.2°F-1.6°C 69% Calm Calm -- 30.00 in1015.9 mb - 0.00 in0.0 mm 0.00 in0.0 mm
05:30 AM 39.3°F4.1°C 29.3°F-1.5°C 67% Calm Calm -- 30.00 in1015.9 mb - 0.00 in0.0 mm 0.00 in0.0 mm
05:15 AM 39.6°F4.2°C 28.8°F-1.8°C 65% Calm Calm -- 30.00 in1015.9 mb - 0.00 in0.0 mm 0.00 in0.0 mm
05:00 AM 40.0°F4.4°C 28.8°F-1.8°C 64% Calm Calm -- 29.99 in1015.6 mb - 0.00 in0.0 mm 0.00 in0.0 mm
04:45 AM 40.8°F4.9°C 28.8°F-1.8°C 62% Calm Calm -- 29.98 in1015.2 mb - 0.00 in0.0 mm 0.00 in0.0 mm
04:30 AM 40.9°F4.9°C 28.5°F-1.9°C 61% Calm Calm -- 29.98 in1015.2 mb - 0.00 in0.0 mm 0.00 in0.0 mm
04:15 AM 41.8°F5.4°C 28.1°F-2.2°C 58% Calm Calm -- 29.97 in1014.9 mb - 0.00 in0.0 mm 0.00 in0.0 mm
04:00 AM 41.7°F5.4°C 28.0°F-2.2°C 58% Calm Calm -- 29.97 in1014.9 mb - 0.00 in0.0 mm 0.00 in0.0 mm
03:45 AM 42.7°F5.9°C 28.1°F-2.2°C 56% Calm Calm -- 29.97 in1014.9 mb - 0.00 in0.0 mm 0.00 in0.0 mm
03:30 AM 43.2°F6.2°C 27.2°F-2.7°C 53% Calm Calm -- 29.96 in1014.6 mb - 0.00 in0.0 mm 0.00 in0.0 mm
03:15 AM 44.4°F6.9°C 27.3°F-2.6°C 51% Calm Calm -- 29.96 in1014.6 mb - 0.00 in0.0 mm 0.00 in0.0 mm
03:00 AM 44.3°F6.8°C 24.3°F-4.3°C 45% Calm Calm -- 29.96 in1014.6 mb - 0.00 in0.0 mm 0.00 in0.0 mm
02:45 AM 45.6°F7.6°C 24.9°F-3.9°C 44% Calm Calm -- 29.96 in1014.6 mb - 0.00 in0.0 mm 0.00 in0.0 mm
02:30 AM 45.5°F7.5°C 23.1°F-4.9°C 41% Calm Calm -- 29.96 in1014.6 mb - 0.00 in0.0 mm 0.00 in0.0 mm
02:15 AM 45.7°F7.6°C 24.5°F-4.2°C 43% Calm Calm -- 29.96 in1014.6 mb - 0.00 in0.0 mm 0.00 in0.0 mm
02:00 AM 46.7°F8.2°C 23.6°F-4.7°C 40% Calm Calm -- 29.96 in1014.6 mb - 0.00 in0.0 mm 0.00 in0.0 mm
01:45 AM 47.5°F8.6°C 22.5°F-5.3°C 37% Calm Calm -- 29.96 in1014.6 mb - 0.00 in0.0 mm 0.00 in0.0 mm
01:30 AM 48.7°F9.3°C 21.5°F-5.8°C 34% Calm Calm -- 29.96 in1014.6 mb - 0.00 in0.0 mm 0.00 in0.0 mm
01:15 AM 50.5°F10.3°C 21.0°F-6.1°C 31% Calm Calm -- 29.95 in1014.2 mb - 0.00 in0.0 mm 0.00 in0.0 mm
01:00 AM 51.1°F10.6°C 20.7°F-6.3°C 30% Calm Calm 1.0 mph1.6 kmh 29.95 in1014.2 mb - 0.00 in0.0 mm 0.00 in0.0 mm
12:45 AM 51.4°F10.8°C 22.5°F-5.3°C 32% Calm Calm -- 29.95 in1014.2 mb - 0.00 in0.0 mm 0.00 in0.0 mm
12:30 AM 50.8°F10.4°C 22.7°F-5.2°C 33% 0.4 mph NW0.6 kmh NW 1.0 mph1.6 kmh 29.95 in1014.2 mb - 0.00 in0.0 mm 0.00 in0.0 mm
12:15 AM 50.3°F10.2°C 23.0°F-5.0°C 34% Calm Calm -- 29.94 in1013.9 mb - 0.00 in0.0 mm 0.00 in0.0 mm
12:00 AM 50.3°F10.2°C 23.0°F-5.0°C 34% Calm Calm -- 29.94 in1013.9 mb - 0.00 in0.0 mm 0.00 in0.0 mm